EGCC/MAN METAR and TAF weather

Enter ICAO airport designator
Station Type Date Time Source
EGCC METAR 2020/06/02 18:50 UTC NOAA

EGCC 021850Z AUTO 29009KT 9999 NCD 20/07 Q1015 NOSIG


Station Type Date Time Source
EGCC Decoded METAR 2020/06/02 18:50 UTC NOAA

Manchester Airport, United Kingdom (EGCC) 53-21N 002-17W 0M
Jun 02, 2020 - 02:50 PM EDT / 2020.06.02 1850 UTC
Wind: from the WNW (290 degrees) at 10 MPH (9 KT):0
Visibility: greater than 7 mile(s):0
Temperature: 68 F (20 C)
Dew Point: 44 F (7 C)
Relative Humidity: 42%
Pressure (altimeter): 29.97 in. Hg (1015 hPa)
ob: EGCC 021850Z AUTO 29009KT 9999 NCD 20/07 Q1015 NOSIG
cycle: 19

Station Type Date Time Source
EGCC TAF 2020/06/02 18:09 UTC NOAA

TAF EGCC 021700Z 0218/0324 31009KT CAVOK
BECMG 0221/0224 BKN020 PROB30
TEMPO 0221/0223 8000 -SHRA
TEMPO 0223/0312 6000 RA BKN012 PROB30
TEMPO 0223/0310 3000 +RA BKN007
BECMG 0307/0310 04010KT
TEMPO 0312/0318 8000 -RA PROB30
TEMPO 0312/0315 SHRA BKN012

Example: see airport list